Terminal Aerodrome Forecast
Issued by NWS Sterling, VA

Current Version | Previous Version | Graphics & Text | Print | Product List | Glossary On
Versions: 1 2 3 4 5 6 7 8 9 10 11 12 13 14 15 16 17 18 19 20 21 22 23 24 25 26 27 28
000
FTUS41 KLWX 211500 AAA
TAFIAD
TAF AMD
KIAD 211503Z 2115/2218 12004KT P6SM BKN020 OVC050
     FM211800 17007KT P6SM SCT025 BKN050
     FM220500 VRB03KT P6SM BKN090
     FM221200 17005KT P6SM SCT025
     FM221500 17006KT P6SM SCT050=

USA.gov is the U.S. government's official web portal to all federal, state and local government web resources and services.